Bronaugh, MO (64728)

5:38 AM CDT on October 31, 2014 (GMT -0500)
Nevada | Change Station
CLOSE
Current Station
Personal Weather Station
Location: Nevada, MO
Elevation: 863 ft
Nearby Weather Stations
Active Advisory: Freeze Warning

Elev 863 ft 37.82 °N, 94.33 °W | Updated 3 seconds ago

Partly Cloudy
Partly Cloudy
49.1 °F
Feels Like 45 °F
N
9.2
Wind Variable Wind from WNW
Gusts 15.2 mph

Today
High -- | Low -- °F
--% Chance of Precip.
Yesterday
High -- | Low -- °F
Precip. -- in
7:42 AM 6:20 PM
First Quarter, 54% visible
Pressure 30.26 in
Visibility 10.0 miles
Clouds Clear
Windchill 45 °F
Dew Point 41 °F
Humidity 74%
Rainfall 0.00 in
Snow Depth Not available.
UV 0 out of 12
Pollen 1.90 out of 12
Air Quality Not available.
Flu Activity Not available.
METAR KPTS 311015Z AUTO 36006KT 10SM CLR 09/06 A3026 RMK AO2 T00920060

More Conditions Fewer Conditions

Pressure 30.26 in
Visibility 10.0 miles
Clouds Clear
Windchill 45 °F
Dew Point 41 °F
Humidity 74%
Rainfall 0.00 in
Snow Depth Not available.
UV 0 out of 12
Pollen 1.90 out of 12
Air Quality Not available.
Flu Activity Not available.
METAR KPTS 311015Z AUTO 36006KT 10SM CLR 09/06 A3026 RMK AO2 T00920060

More Conditions Fewer Conditions

10-Day Weather Forecast

Almanac

Astronomy

Oct. 31, 2014 Rise Set
Actual Time
Civil Twilight
Nautical Twilight
Astronomical Twilight
Moon
Length of Visible Light
Length of Day
Tomorrow will be .
, % of the Moon is Illuminated

Today's Extremes

State Highs State Lows

Community

WunderPhotos

Upload Photos

1,766,580 photos uploaded!

WunderBlogs® & News

Nearby

Air Quality

  Air Quality AQ Index Pollutant
Not available.

Snow Depth

Station Depth Elevation

Earthquake Activity

City Distance Mag. Time & Date
Minimum magnitude displayed is 2.5.

Coastal Water Temperatures

Place Temperature

Nearby Weather Stations